Flight Track Log - Related Links

Times and Time Zones

All times are in EST time to prevent confusion due to time zone crossing. See the N612TX flight status page for this flight to view local times or setup timezone preferences in your user account.

Time Position Orientation Groundspeed Altitude Reporting Facility
EST Latitude Longitude Course Direction KTS MPH feet Rate Location/Type
Fri 01:04:04 PM 34.5894 -82.8100 346° North 187 215 6,000  Level Atlanta Center
Fri 01:05:04 PM 34.6336 -82.8294 340° North 188 216 7,300 1,300 Climbing Atlanta Center
Fri 01:06:04 PM 34.6839 -82.8464 345° North 188 216 8,600 1,200 Climbing Atlanta Center
Fri 01:07:04 PM 34.7319 -82.8661 341° North 188 216 9,700 1,100 Climbing Atlanta Center
Fri 01:08:00 PM 34.8517 -82.8505 346° North  Level FlightAware Approximate
Fri 01:08:04 PM 34.7822 -82.8881 340° North 188 216 10,800  Level Atlanta Center
Fri 01:09:04 PM 34.8325 -82.9050 345° North 188 216 12,000 1,150 Climbing Atlanta Center
Fri 01:10:04 PM 34.8828 -82.9247 342° North 188 216 13,100 1,100 Climbing Atlanta Center
Fri 01:11:04 PM 34.9436 -82.9467 344° North 193 222 14,200 1,000 Climbing Atlanta Center
Fri 01:12:04 PM 34.9981 -82.9689 342° North 199 229 15,100 1,000 Climbing Atlanta Center
Fri 01:13:04 PM 35.0544 -82.9908 342° North 204 235 16,200 942 Climbing Atlanta Center
Fri 01:14:05 PM 35.1111 -83.0156 340° North 209 241 17,000 800 Climbing Atlanta Center
Fri 01:15:04 PM 35.1656 -83.0378 342° North 209 241 17,800 700 Climbing Atlanta Center
Fri 01:16:05 PM 35.2219 -83.0547 346° North 209 241 18,400 650 Climbing Atlanta Center
Fri 01:17:04 PM 35.2806 -83.0822 339° North 209 241 19,100 756 Climbing Atlanta Center
Fri 01:18:04 PM 35.3369 -83.1019 344° North 209 241 19,900 450 Climbing Atlanta Center
Fri 01:19:04 PM 35.3956 -83.1267 341° North 215 247 20,000 450 Climbing Atlanta Center
Fri 01:20:04 PM 35.4542 -83.1464 345° North 215 247 20,800 900 Climbing Atlanta Center
Fri 01:21:04 PM 35.5067 -83.1714 339° North 210 242 21,800 600 Climbing Atlanta Center
Fri 01:22:04 PM 35.5631 -83.1911 344° North 210 242 22,000 100 Climbing Atlanta Center
Fri 01:23:04 PM 35.6236 -83.2161 341° North 216 249 22,000  Level Atlanta Center
Fri 01:24:04 PM 35.6803 -83.2411 340° North 223 257 22,000  Level Atlanta Center
Fri 01:25:04 PM 35.7450 -83.2636 344° North 233 268 22,000  Level Atlanta Center
Fri 01:26:04 PM 35.8119 -83.2911 342° North 238 274 22,000  Level Atlanta Center
Fri 01:27:04 PM 35.8767 -83.3186 341° North 244 281 22,000  Level Atlanta Center
Fri 01:28:04 PM 35.9436 -83.3461 342° North 249 287 22,000  Level Atlanta Center
Fri 01:29:04 PM 36.0083 -83.3686 344° North 249 287 22,000  Level Atlanta Center
Fri 01:30:04 PM 36.0733 -83.3964 341° North 249 287 22,000  Level Atlanta Center
Fri 01:31:04 PM 36.1403 -83.4217 343° North 249 287 22,000  Level Atlanta Center
Fri 01:31:46 PM 36.1822 -83.4375 343° North 249 287 22,000  Level Indianapolis Center
Fri 01:32:48 PM 36.2583 -83.4669 343° North 244 281 22,000  Level Indianapolis Center
Fri 01:33:50 PM 36.3231 -83.4950 341° North 244 281 22,000  Level Indianapolis Center
Fri 01:34:52 PM 36.3847 -83.5194 342° North 247 284 22,000  Level Indianapolis Center
Fri 01:35:54 PM 36.4500 -83.5447 343° North 247 284 22,000  Level Indianapolis Center
Fri 01:36:56 PM 36.5203 -83.5742 341° North 247 284 22,000  Level Indianapolis Center
Fri 01:37:58 PM 36.5858 -83.6011 342° North 247 284 22,000  Level Indianapolis Center
Fri 01:39:00 PM 36.6622 -83.6314 342° North 246 283 22,000  Level Indianapolis Center
Fri 01:40:02 PM 36.7269 -83.6592 341° North 246 283 22,000  Level Indianapolis Center
Fri 01:41:04 PM 36.7925 -83.6853 342° North 244 281 22,000  Level Indianapolis Center
Fri 01:42:06 PM 36.8561 -83.7117 342° North 241 277 22,000  Level Indianapolis Center
Fri 01:43:08 PM 36.9219 -83.7378 342° North 245 282 22,000  Level Indianapolis Center
Fri 01:44:10 PM 36.9861 -83.7650 341° North 244 281 22,000  Level Indianapolis Center
Fri 01:45:12 PM 37.0619 -83.7958 342° North 244 281 22,000  Level Indianapolis Center
Fri 01:46:14 PM 37.1267 -83.8219 342° North 243 280 22,000  Level Indianapolis Center
Fri 01:47:16 PM 37.1917 -83.8489 342° North 245 282 22,000  Level Indianapolis Center
Fri 01:48:18 PM 37.2558 -83.8767 341° North 243 280 22,000  Level Indianapolis Center
Fri 01:49:20 PM 37.3208 -83.9028 342° North 244 281 22,000  Level Indianapolis Center
Fri 01:50:22 PM 37.3853 -83.9303 341° North 244 281 22,000  Level Indianapolis Center
Fri 01:51:24 PM 37.4608 -83.9611 342° North 243 280 22,000  Level Indianapolis Center
Fri 01:52:26 PM 37.5247 -83.9883 341° North 242 278 22,000  Level Indianapolis Center
Fri 01:53:28 PM 37.5883 -84.0147 342° North 241 277 22,000  Level Indianapolis Center
Fri 01:54:30 PM 37.6528 -84.0414 342° North 242 278 22,000  Level Indianapolis Center
Fri 01:55:32 PM 37.7169 -84.0683 342° North 243 280 22,000  Level Indianapolis Center
Fri 01:56:34 PM 37.7817 -84.0953 342° North 243 280 22,000  Level Indianapolis Center
Fri 01:57:36 PM 37.8558 -84.1261 342° North 241 277 22,000  Level Indianapolis Center
Fri 01:58:38 PM 37.9197 -84.1539 341° North 241 277 22,000  Level Indianapolis Center
Fri 01:59:40 PM 37.9844 -84.1803 342° North 243 280 22,000  Level Indianapolis Center
Fri 02:00:42 PM 38.0481 -84.2069 342° North 241 277 22,000  Level Indianapolis Center
Fri 02:01:44 PM 38.1122 -84.2358 340° North 243 280 22,000  Level Indianapolis Center
Fri 02:02:47 PM 38.1883 -84.2672 342° North 246 283 22,000  Level Indianapolis Center
Fri 02:03:49 PM 38.2517 -84.2958 340° North 242 278 22,000  Level Indianapolis Center
Fri 02:04:51 PM 38.3169 -84.3231 342° North 244 281 22,000  Level Indianapolis Center
Fri 02:05:53 PM 38.3822 -84.3492 343° North 245 282 22,000  Level Indianapolis Center
Fri 02:06:55 PM 38.4472 -84.3772 341° North 245 282 22,000  Level Indianapolis Center
Fri 02:07:57 PM 38.5125 -84.4067 341° North 246 283 22,000  Level Indianapolis Center
Fri 02:08:59 PM 38.5892 -84.4381 342° North 246 283 22,000  Level Indianapolis Center
Fri 02:10:01 PM 38.6489 -84.4642 341° North 247 284 22,000  Level Indianapolis Center
Fri 02:11:03 PM 38.7136 -84.4936 340° North 246 283 22,000  Level Indianapolis Center
Fri 02:12:05 PM 38.7789 -84.5217 341° North 247 284 22,000  Level Indianapolis Center
Fri 02:13:07 PM 38.8494 -84.5517 342° North 243 280 22,000  Level Indianapolis Center
Fri 02:14:09 PM 38.9200 -84.5825 341° North 244 281 22,000  Level Indianapolis Center
Fri 02:15:11 PM 38.9844 -84.6108 341° North 245 282 22,000  Level Indianapolis Center
Fri 02:16:13 PM 39.0478 -84.6386 341° North 242 278 22,000  Level Indianapolis Center
Fri 02:17:15 PM 39.1128 -84.6672 341° North 246 283 22,000  Level Indianapolis Center
Fri 02:18:18 PM 39.1786 -84.6958 341° North 247 284 22,000  Level Indianapolis Center
Fri 02:19:20 PM 39.2569 -84.7306 341° North 248 285 22,000  Level Indianapolis Center
Fri 02:20:22 PM 39.3225 -84.7589 342° North 249 287 22,000  Level Indianapolis Center
Fri 02:21:24 PM 39.3894 -84.7886 341° North 253 291 22,000  Level Indianapolis Center
Fri 02:22:26 PM 39.4569 -84.8189 341° North 255 293 22,000  Level Indianapolis Center
Fri 02:23:28 PM 39.5217 -84.8461 342° North 250 288 22,000  Level Indianapolis Center
Fri 02:24:30 PM 39.5892 -84.8761 341° North 253 291 22,000  Level Indianapolis Center
Fri 02:25:32 PM 39.6583 -84.9069 341° North 253 291 22,000  Level Indianapolis Center
Fri 02:26:34 PM 39.7364 -84.9425 341° North 250 288 22,000  Level Indianapolis Center
Fri 02:27:36 PM 39.8031 -84.9711 342° North 253 291 22,000  Level Indianapolis Center
Fri 02:28:38 PM 39.8681 -85.0003 341° North 250 288 22,000  Level Indianapolis Center
Fri 02:29:40 PM 39.9328 -85.0294 341° North 247 284 22,000  Level Indianapolis Center
Fri 02:30:42 PM 39.9994 -85.0592 341° North 252 290 22,000  Level Indianapolis Center
Fri 02:31:44 PM 40.0772 -85.0942 341° North 250 288 22,000  Level Indianapolis Center
Fri 02:32:46 PM 40.1419 -85.1239 341° North 249 287 22,000  Level Indianapolis Center
Fri 02:33:49 PM 40.2081 -85.1533 341° North 251 289 22,000  Level Indianapolis Center
Fri 02:34:51 PM 40.2728 -85.1828 341° North 248 285 22,000  Level Indianapolis Center
Fri 02:35:53 PM 40.3375 -85.2122 341° North 249 287 22,000  Level Indianapolis Center
Fri 02:36:55 PM 40.4014 -85.2403 342° North 247 284 22,000  Level Chicago Center
Fri 02:37:57 PM 40.4786 -85.2767 340° North 246 283 22,000  Level Chicago Center
Fri 02:38:59 PM 40.5431 -85.3039 342° North 245 282 22,000  Level Chicago Center
Fri 02:40:01 PM 40.6072 -85.3344 340° North 245 282 22,000  Level Chicago Center
Fri 02:41:03 PM 40.6697 -85.3633 341° North 244 281 22,000  Level Chicago Center
Fri 02:42:05 PM 40.7458 -85.3989 341° North 243 280 22,000  Level Chicago Center
Fri 02:43:07 PM 40.8089 -85.4272 341° North 241 277 22,000  Level Chicago Center
Fri 02:44:10 PM 40.8719 -85.4581 340° North 240 276 22,000  Level Chicago Center
Fri 02:45:12 PM 40.9356 -85.4869 341° North 241 277 22,000  Level Chicago Center
Fri 02:46:14 PM 40.9997 -85.5167 341° North 244 281 22,000  Level Chicago Center
Fri 02:47:16 PM 41.0628 -85.5453 341° North 240 276 22,000  Level Chicago Center
Fri 02:48:18 PM 41.1383 -85.5806 341° North 240 276 22,000  Level Chicago Center
Fri 02:49:20 PM 41.2011 -85.6103 340° North 239 275 22,000  Level Chicago Center
Fri 02:50:22 PM 41.2639 -85.6392 341° North 238 274 22,000  Level Chicago Center
Fri 02:51:24 PM 41.3269 -85.6697 340° North 239 275 22,000  Level Chicago Center
Fri 02:52:26 PM 41.3908 -85.6994 341° North 242 278 22,000  Level Chicago Center
Fri 02:53:28 PM 41.4539 -85.7308 340° North 241 277 22,000  Level Chicago Center
Fri 02:54:31 PM 41.5178 -85.7606 341° North 241 277 22,000  Level Chicago Center
Fri 02:55:33 PM 41.5931 -85.7956 341° North 239 275 22,000  Level Chicago Center
Fri 02:56:35 PM 41.6558 -85.8253 341° North 238 274 22,000  Level Chicago Center
Fri 02:57:37 PM 41.7175 -85.8547 340° North 235 270 22,000  Level Chicago Center
Fri 02:58:39 PM 41.7789 -85.8833 341° North 233 268 22,000  Level Chicago Center
Fri 02:59:41 PM 41.8408 -85.9136 340° North 234 269 22,000  Level Chicago Center
Fri 03:00:43 PM 41.9025 -85.9428 341° North 235 270 22,000  Level Chicago Center
Fri 03:01:45 PM 41.9767 -85.9778 341° North 236 272 22,000  Level Chicago Center
Fri 03:02:47 PM 42.0372 -86.0069 340° North 232 267 22,000  Level Chicago Center
Fri 03:03:49 PM 42.0972 -86.0367 340° North 231 266 22,000  Level Chicago Center
Fri 03:04:52 PM 42.1581 -86.0650 341° North 231 266 22,000  Level Chicago Center
Fri 03:05:54 PM 42.2183 -86.0953 340° North 230 265 22,000  Level Chicago Center
Fri 03:06:56 PM 42.2792 -86.1244 340° North 232 267 22,000  Level Chicago Center
Fri 03:07:58 PM 42.3475 -86.1572 340° North 229 264 22,000  Level Chicago Center
Fri 03:09:00 PM 42.4064 -86.1872 339° North 230 265 22,000  Level Chicago Center
Fri 03:10:02 PM 42.4664 -86.2158 341° North 229 264 22,000  Level Chicago Center
Fri 03:11:04 PM 42.5269 -86.2453 340° North 231 266 22,000  Level Chicago Center
Fri 03:12:06 PM 42.5992 -86.2803 340° North 230 265 22,000  Level Chicago Center
Fri 03:13:08 PM 42.6603 -86.3092 341° North 232 267 22,000  Level Chicago Center
Fri 03:14:11 PM 42.7200 -86.3397 339° North 230 265 22,000  Level Chicago Center
Fri 03:15:13 PM 42.7806 -86.3692 340° North 230 265 22,000  Level Chicago Center
Fri 03:16:15 PM 42.8403 -86.3986 340° North 228 262 22,000  Level Chicago Center
Fri 03:17:17 PM 42.8994 -86.4275 340° North 225 259 22,000  Level Chicago Center
Fri 03:18:19 PM 42.9597 -86.4581 340° North 228 262 22,000  Level Chicago Center
Fri 03:19:21 PM 43.0319 -86.4928 341° North 229 264 22,000  Level Chicago Center
Fri 03:20:23 PM 43.0917 -86.5236 339° North 228 262 22,000  Level Chicago Center
Fri 03:21:25 PM 43.1514 -86.5522 341° North 227 261 22,000  Level Chicago Center
Fri 03:22:27 PM 43.2097 -86.5817 340° North 224 258 22,000  Level Chicago Center
Fri 03:23:29 PM 43.2686 -86.6119 339° North 224 258 22,000  Level Chicago Center
Fri 03:24:31 PM 43.3283 -86.6403 341° North 227 261 22,000  Level Chicago Center
Fri 03:25:33 PM 43.3992 -86.6767 340° North 226 260 22,000  Level Chicago Center
Fri 03:26:35 PM 43.4586 -86.7061 340° North 227 261 22,000  Level Chicago Center
Fri 03:27:37 PM 43.5181 -86.7361 340° North 227 261 22,000  Level Chicago Center
Fri 03:28:39 PM 43.5758 -86.7669 339° North 223 257 22,000  Level Chicago Center
Fri 03:29:41 PM 43.6342 -86.7956 340° North 224 258 22,000  Level Chicago Center
Fri 03:30:43 PM 43.6936 -86.8256 340° North 226 260 22,000  Level Chicago Center
Fri 03:31:45 PM 43.7511 -86.8553 340° North 222 255 22,000 -242 Level Chicago Center
Fri 03:32:47 PM 43.8231 -86.8903 341° North 228 262 21,500 -823 Descending Chicago Center
Fri 03:33:49 PM 43.8828 -86.9222 339° North 230 265 20,300 -1,161 Descending Chicago Center
Fri 03:34:51 PM 43.9436 -86.9531 340° North 232 267 19,100 -1,210 Descending Chicago Center
Fri 03:35:53 PM 44.0033 -86.9853 339° North 230 265 17,800 -1,210 Descending Chicago Center
Fri 03:36:55 PM 44.0633 -87.0153 340° North 230 265 16,600 -1,161 Descending Chicago Center
Fri 03:37:57 PM 44.1247 -87.0461 340° North 234 269 15,400 -1,258 Descending Chicago Center
Fri 03:38:59 PM 44.1908 -87.0811 339° North 228 262 14,000 -1,258 Descending Chicago Center
Fri 03:40:01 PM 44.2517 -87.1119 340° North 230 265 12,800 -1,210 Descending Chicago Center
Fri 03:41:03 PM 44.3142 -87.1439 340° North 236 272 11,500 -1,355 Descending Chicago Center
Fri 03:42:05 PM 44.3869 -87.1822 339° North 234 269 10,000 -1,306 Descending Chicago Center
Fri 03:43:30 PM 44.4678 -87.2244 340° North 226 260 8,300 -1,184 Descending Minneapolis Center
Fri 03:44:32 PM 44.5269 -87.2558 339° North 227 261 7,100 -1,171 Descending Minneapolis Center
Fri 03:45:33 PM 44.5850 -87.2858 340° North 225 259 5,900 -1,171 Descending Minneapolis Center
Fri 03:46:35 PM 44.6450 -87.3183 339° North 226 260 4,700 -871 Descending Minneapolis Center
Fri 03:47:37 PM 44.7003 -87.3489 339° North 227 261 4,100 -581 Descending Minneapolis Center

Login

Don't have an account? Register now (free) for customized features, flight alerts, and more!